createdAt,value
2018-07-05T00:01:19.081Z,22.19
2018-07-05T00:04:05.755Z,22.11
2018-07-05T00:06:52.205Z,22.16
2018-07-05T00:09:38.775Z,22.10
2018-07-05T00:12:25.394Z,22.05
2018-07-05T00:15:11.833Z,22.07
2018-07-05T00:17:58.534Z,22.07
2018-07-05T00:20:45.023Z,22.03
2018-07-05T00:23:31.831Z,22.02
2018-07-05T00:26:18.752Z,22.00
2018-07-05T00:29:05.877Z,22.00
2018-07-05T00:31:53.032Z,21.97
2018-07-05T00:34:39.909Z,22.01
2018-07-05T00:37:26.991Z,21.89
2018-07-05T00:40:13.577Z,21.89
2018-07-05T00:43:00.149Z,21.89
2018-07-05T00:45:47.113Z,21.88
2018-07-05T00:48:34.032Z,21.86
2018-07-05T00:51:20.910Z,21.85
2018-07-05T00:54:07.486Z,21.81
2018-07-05T00:56:53.933Z,21.83
2018-07-05T00:59:40.570Z,21.85
2018-07-05T01:02:27.227Z,21.80
2018-07-05T01:05:13.827Z,21.78
2018-07-05T01:08:00.390Z,21.76
2018-07-05T01:10:46.975Z,21.78
2018-07-05T01:13:33.626Z,21.74
2018-07-05T01:16:20.082Z,21.71
2018-07-05T01:19:06.661Z,21.68
2018-07-05T01:21:53.224Z,21.67
2018-07-05T01:24:39.905Z,21.74
2018-07-05T01:27:26.376Z,21.71
2018-07-05T01:30:12.821Z,21.70
2018-07-05T01:32:59.515Z,21.72
2018-07-05T01:35:46.365Z,21.70
2018-07-05T01:38:32.887Z,21.64
2018-07-05T01:41:20.268Z,21.57
2018-07-05T01:44:06.759Z,21.56
2018-07-05T01:46:53.359Z,21.55
2018-07-05T01:49:39.787Z,21.51
2018-07-05T01:52:26.405Z,21.45
2018-07-05T01:55:13.070Z,21.43
2018-07-05T01:57:59.633Z,21.44
2018-07-05T02:00:46.088Z,21.41
2018-07-05T02:03:32.648Z,21.36
2018-07-05T02:06:19.224Z,21.22
2018-07-05T02:09:05.896Z,21.22
2018-07-05T02:11:52.504Z,21.21
2018-07-05T02:14:39.585Z,21.20
2018-07-05T02:17:26.542Z,21.24
2018-07-05T02:20:13.542Z,21.27
2018-07-05T02:23:00.007Z,21.28
2018-07-05T02:25:46.643Z,21.30
2018-07-05T02:28:33.095Z,21.32
2018-07-05T02:31:19.656Z,21.31
2018-07-05T02:34:11.455Z,21.31
2018-07-05T02:36:58.574Z,21.41
2018-07-05T02:39:49.053Z,21.29
2018-07-05T02:42:35.462Z,21.23
2018-07-05T02:45:22.208Z,21.20
2018-07-05T02:48:08.837Z,21.19
2018-07-05T02:50:55.984Z,21.23
2018-07-05T02:53:43.136Z,21.15
2018-07-05T02:56:29.704Z,21.16
2018-07-05T02:59:16.683Z,21.19
2018-07-05T03:02:03.543Z,21.19
2018-07-05T03:04:50.773Z,21.26
2018-07-05T03:07:37.555Z,21.37
2018-07-05T03:10:24.392Z,21.36
2018-07-05T03:13:11.169Z,21.36
2018-07-05T03:15:57.741Z,21.36
2018-07-05T03:18:44.307Z,21.42
2018-07-05T03:21:31.296Z,21.42
2018-07-05T03:24:18.325Z,21.55
2018-07-05T03:27:05.302Z,21.59
2018-07-05T03:29:52.135Z,21.58
2018-07-05T03:32:39.098Z,21.70
2018-07-05T03:35:25.985Z,21.72
2018-07-05T03:38:12.792Z,21.65
2018-07-05T03:40:59.709Z,21.71
2018-07-05T03:43:46.762Z,21.70
2018-07-05T03:46:33.203Z,21.77
2018-07-05T03:49:20.453Z,21.74
2018-07-05T03:52:07.317Z,21.63
2018-07-05T03:54:54.048Z,21.54
2018-07-05T03:57:40.861Z,21.41
2018-07-05T04:00:27.557Z,21.46
2018-07-05T04:03:14.608Z,21.42
2018-07-05T04:06:01.084Z,21.43
2018-07-05T04:08:47.677Z,21.39
2018-07-05T04:11:34.305Z,21.41
2018-07-05T04:14:20.959Z,21.40
2018-07-05T04:17:07.435Z,21.45
2018-07-05T04:19:53.926Z,21.58
2018-07-05T04:22:40.899Z,21.59
2018-07-05T04:25:27.884Z,21.68
2018-07-05T04:28:14.682Z,21.62
2018-07-05T04:31:01.321Z,21.56
2018-07-05T04:33:48.193Z,21.63
2018-07-05T04:36:35.302Z,21.66
2018-07-05T04:39:22.358Z,22.00
2018-07-05T04:42:09.420Z,22.07
2018-07-05T04:44:56.022Z,22.01
2018-07-05T04:47:42.801Z,21.81
2018-07-05T04:50:29.498Z,21.90
2018-07-05T04:53:16.343Z,21.90
2018-07-05T04:56:03.132Z,21.86
2018-07-05T04:58:50.858Z,21.75
2018-07-05T05:01:37.719Z,21.70
2018-07-05T05:04:24.488Z,21.70
2018-07-05T05:07:11.059Z,21.76
2018-07-05T05:09:57.947Z,21.91
2018-07-05T05:12:44.644Z,21.98
2018-07-05T05:15:31.421Z,22.02
2018-07-05T05:18:18.053Z,21.92
2018-07-05T05:21:04.872Z,21.79
2018-07-05T05:23:51.613Z,21.75
2018-07-05T05:26:38.211Z,21.86
2018-07-05T05:29:25.025Z,21.90
2018-07-05T05:32:11.721Z,21.73
2018-07-05T05:34:58.572Z,21.73
2018-07-05T05:37:45.445Z,21.97
2018-07-05T05:40:32.404Z,21.89
2018-07-05T05:43:19.265Z,21.90
2018-07-05T05:46:06.218Z,22.15
2018-07-05T05:48:52.836Z,21.89
2018-07-05T05:51:39.478Z,21.86
2018-07-05T05:54:26.250Z,22.22
2018-07-05T05:57:13.227Z,22.44
2018-07-05T05:59:59.952Z,22.25
2018-07-05T06:02:46.916Z,22.38
2018-07-05T06:05:33.806Z,22.45
2018-07-05T06:08:21.154Z,22.40
2018-07-05T06:11:07.751Z,22.27
2018-07-05T06:13:54.609Z,22.41
2018-07-05T06:16:41.163Z,22.93
2018-07-05T06:19:28.116Z,23.41
2018-07-05T06:22:15.630Z,23.63
2018-07-05T06:25:02.301Z,23.46
2018-07-05T06:27:48.851Z,23.40
2018-07-05T06:30:35.861Z,23.87
2018-07-05T06:33:23.494Z,24.14
2018-07-05T06:36:10.503Z,24.65
2018-07-05T06:38:57.387Z,24.11
2018-07-05T06:41:44.499Z,24.59
2018-07-05T06:44:31.348Z,24.12
2018-07-05T06:47:18.086Z,24.89
2018-07-05T06:50:05.015Z,25.14
2018-07-05T06:52:51.989Z,25.31
2018-07-05T06:55:38.891Z,24.43
2018-07-05T06:58:25.449Z,24.09
2018-07-05T07:01:11.995Z,24.71
2018-07-05T07:03:58.565Z,25.32
2018-07-05T07:06:45.160Z,25.14
2018-07-05T07:09:31.769Z,25.13
2018-07-05T07:12:18.394Z,24.50
2018-07-05T07:15:04.892Z,24.31
2018-07-05T07:17:51.723Z,23.98
2018-07-05T07:20:38.616Z,23.70
2018-07-05T07:23:25.142Z,23.89
2018-07-05T07:26:11.593Z,24.05
2018-07-05T07:28:58.190Z,23.98
2018-07-05T07:31:45.604Z,24.08
2018-07-05T07:34:32.203Z,24.06
2018-07-05T07:37:18.713Z,24.41
2018-07-05T07:40:05.348Z,23.97
2018-07-05T07:42:39.513Z,24.20
2018-07-05T07:45:07.668Z,24.21
2018-07-05T07:47:35.768Z,24.57
2018-07-05T07:50:04.049Z,24.53
2018-07-05T07:52:32.346Z,24.56
2018-07-05T07:55:00.379Z,24.29
2018-07-05T07:57:28.416Z,24.23
2018-07-05T07:59:56.436Z,24.32
2018-07-05T08:02:24.581Z,24.14
2018-07-05T08:04:52.741Z,24.30
2018-07-05T08:07:20.813Z,24.39
2018-07-05T08:09:49.232Z,24.33
2018-07-05T08:12:17.296Z,24.26
2018-07-05T08:14:45.544Z,24.28
2018-07-05T08:17:13.721Z,24.56
2018-07-05T08:19:41.784Z,24.60
2018-07-05T08:22:09.882Z,24.46
2018-07-05T08:24:37.933Z,24.41
2018-07-05T08:27:05.967Z,24.57
2018-07-05T08:29:34.244Z,24.57
2018-07-05T08:32:02.668Z,24.66
2018-07-05T08:34:31.074Z,24.40
2018-07-05T08:36:59.184Z,24.27
2018-07-05T08:39:27.221Z,24.33
2018-07-05T08:41:55.278Z,24.23
2018-07-05T08:44:23.598Z,24.35
2018-07-05T08:46:51.655Z,24.36
2018-07-05T08:49:19.685Z,24.38
2018-07-05T08:51:47.720Z,24.13
2018-07-05T08:54:15.868Z,24.49
2018-07-05T08:56:43.997Z,23.97
2018-07-05T08:59:12.100Z,23.77
2018-07-05T09:01:40.249Z,23.95
2018-07-05T09:04:08.592Z,23.96
2018-07-05T09:06:37.013Z,23.80
2018-07-05T09:09:05.748Z,23.97
2018-07-05T09:11:34.013Z,24.09
2018-07-05T09:14:02.145Z,24.35
2018-07-05T09:16:30.179Z,24.38
2018-07-05T09:18:58.529Z,24.57
2018-07-05T09:21:26.576Z,24.33
2018-07-05T09:23:54.877Z,23.91
2018-07-05T09:26:23.189Z,23.93
2018-07-05T09:28:51.470Z,24.17
2018-07-05T09:31:19.868Z,23.50
2018-07-05T09:33:47.956Z,23.12
2018-07-05T09:36:16.265Z,23.45
2018-07-05T09:38:44.345Z,23.86
2018-07-05T09:41:12.663Z,23.86
2018-07-05T09:43:41.177Z,23.94
2018-07-05T09:46:09.616Z,24.51
2018-07-05T09:48:37.771Z,24.55
2018-07-05T09:51:06.061Z,24.75
2018-07-05T09:53:34.080Z,23.95
2018-07-05T09:56:02.560Z,24.12
2018-07-05T09:58:31.002Z,24.09
2018-07-05T10:00:59.043Z,24.77
2018-07-05T10:03:27.096Z,25.49
2018-07-05T10:05:55.147Z,26.52
2018-07-05T10:08:23.577Z,27.06
2018-07-05T10:10:51.584Z,27.11
2018-07-05T10:13:19.681Z,28.10
2018-07-05T10:15:48.216Z,28.18
2018-07-05T10:18:16.244Z,28.00
2018-07-05T10:20:44.401Z,28.39
2018-07-05T10:23:12.548Z,27.01
2018-07-05T10:25:40.615Z,27.76
2018-07-05T10:28:09.080Z,27.92
2018-07-05T10:30:49.409Z,28.86
2018-07-05T10:33:36.256Z,28.19
2018-07-05T10:36:10.214Z,27.24
2018-07-05T10:38:39.437Z,26.41
2018-07-05T10:41:19.691Z,26.91
2018-07-05T10:44:06.381Z,27.08
2018-07-05T10:46:52.844Z,28.48
2018-07-05T10:49:39.500Z,27.49
2018-07-05T10:52:26.045Z,27.52
2018-07-05T10:55:12.766Z,28.50
2018-07-05T10:57:59.370Z,29.84
2018-07-05T11:00:45.817Z,29.91
2018-07-05T11:03:32.779Z,29.58
2018-07-05T11:06:19.770Z,28.67
2018-07-05T11:09:07.166Z,29.48
2018-07-05T11:11:54.390Z,29.64
2018-07-05T11:14:41.386Z,29.26
2018-07-05T11:17:28.203Z,29.73
2018-07-05T11:20:15.518Z,29.00
2018-07-05T11:23:02.291Z,28.06
2018-07-05T11:25:49.793Z,28.62
2018-07-05T11:28:36.702Z,28.33
2018-07-05T11:31:23.551Z,27.65
2018-07-05T11:34:10.371Z,28.43
2018-07-05T11:36:57.334Z,29.53
2018-07-05T11:39:44.256Z,29.64
2018-07-05T11:42:31.398Z,28.73
2018-07-05T11:45:18.397Z,29.02
2018-07-05T11:48:04.905Z,30.12
2018-07-05T11:50:51.601Z,30.21
2018-07-05T11:53:38.194Z,30.49
2018-07-05T11:56:24.755Z,30.90
2018-07-05T11:59:12.372Z,30.45
2018-07-05T12:01:59.783Z,31.01
2018-07-05T12:04:46.181Z,31.73
2018-07-05T12:07:33.038Z,31.46
2018-07-05T12:10:19.785Z,30.16
2018-07-05T12:13:06.751Z,31.26
2018-07-05T12:15:53.891Z,31.36
2018-07-05T12:18:40.825Z,31.51
2018-07-05T12:21:27.720Z,31.27
2018-07-05T12:24:14.855Z,30.95
2018-07-05T12:27:01.429Z,29.64
2018-07-05T12:29:47.985Z,29.65
2018-07-05T12:32:34.595Z,29.80
2018-07-05T12:35:21.213Z,29.01
2018-07-05T12:38:07.844Z,28.98
2018-07-05T12:40:54.409Z,29.56
2018-07-05T12:43:40.924Z,29.73
2018-07-05T12:46:27.782Z,30.57
2018-07-05T12:49:14.426Z,30.19
2018-07-05T12:52:00.977Z,30.47
2018-07-05T12:54:47.828Z,30.58
2018-07-05T12:57:34.657Z,30.14
2018-07-05T13:00:21.645Z,29.76
2018-07-05T13:03:08.237Z,29.55
2018-07-05T13:05:54.860Z,30.24
2018-07-05T13:08:41.665Z,30.43
2018-07-05T13:11:28.488Z,31.25
2018-07-05T13:14:15.055Z,32.02
2018-07-05T13:17:02.053Z,33.24
2018-07-05T13:19:48.705Z,33.99
2018-07-05T13:22:35.541Z,34.64
2018-07-05T13:25:22.567Z,33.85
2018-07-05T13:28:09.009Z,33.18
2018-07-05T13:30:55.847Z,33.75
2018-07-05T13:33:42.764Z,33.73
2018-07-05T13:36:29.861Z,33.32
2018-07-05T13:39:16.641Z,33.64
2018-07-05T13:42:03.338Z,34.19
2018-07-05T13:44:50.105Z,34.64
2018-07-05T13:47:37.673Z,35.13
2018-07-05T13:50:24.457Z,35.02
2018-07-05T13:53:11.156Z,35.88
2018-07-05T13:55:57.941Z,35.43
2018-07-05T13:58:44.804Z,35.81
2018-07-05T14:01:31.588Z,35.44
2018-07-05T14:04:18.500Z,35.56
2018-07-05T14:07:05.409Z,34.78
2018-07-05T14:09:52.303Z,33.93
2018-07-05T14:12:39.250Z,35.41
2018-07-05T14:15:25.936Z,34.93
2018-07-05T14:18:13.094Z,36.18
2018-07-05T14:20:59.773Z,35.94
2018-07-05T14:23:46.607Z,35.29
2018-07-05T14:26:33.680Z,35.86
2018-07-05T14:29:20.395Z,36.07
2018-07-05T14:32:06.851Z,35.97
2018-07-05T14:34:53.651Z,35.62
2018-07-05T14:37:40.960Z,34.25
2018-07-05T14:40:27.553Z,32.52
2018-07-05T14:43:14.465Z,34.36
2018-07-05T14:46:01.032Z,34.65
2018-07-05T14:48:47.780Z,34.94
2018-07-05T14:51:35.031Z,35.32
2018-07-05T14:54:22.095Z,34.71
2018-07-05T14:57:09.069Z,34.41
2018-07-05T14:59:55.980Z,33.12
2018-07-05T15:02:42.761Z,32.97
2018-07-05T15:05:29.417Z,32.44
2018-07-05T15:08:15.874Z,31.99
2018-07-05T15:11:03.011Z,33.45
2018-07-05T15:13:49.481Z,34.75
2018-07-05T15:16:37.194Z,34.82
2018-07-05T15:19:24.026Z,34.93
2018-07-05T15:22:10.484Z,35.92
2018-07-05T15:24:57.055Z,36.06
2018-07-05T15:27:43.610Z,34.33
2018-07-05T15:30:30.658Z,32.38
2018-07-05T15:33:17.645Z,33.64
2018-07-05T15:36:04.474Z,34.34
2018-07-05T15:38:51.643Z,32.81
2018-07-05T15:41:38.235Z,33.27
2018-07-05T15:44:25.125Z,33.85
2018-07-05T15:47:11.927Z,35.27
2018-07-05T15:49:58.439Z,34.72
2018-07-05T15:52:44.875Z,33.63
2018-07-05T15:55:31.458Z,34.74
2018-07-05T15:58:18.029Z,33.95
2018-07-05T16:01:05.038Z,32.00
2018-07-05T16:03:51.476Z,32.19
2018-07-05T16:06:38.252Z,32.51
2018-07-05T16:09:24.586Z,31.41
2018-07-05T16:12:11.347Z,31.40
2018-07-05T16:14:59.021Z,29.29
2018-07-05T16:17:46.306Z,29.35
2018-07-05T16:20:32.836Z,30.20
2018-07-05T16:23:19.248Z,29.62
2018-07-05T16:26:05.805Z,28.88
2018-07-05T16:28:52.649Z,29.91
2018-07-05T16:31:39.567Z,31.03
2018-07-05T16:34:26.666Z,30.92
2018-07-05T16:37:12.979Z,31.45
2018-07-05T16:39:59.752Z,31.10
2018-07-05T16:42:46.578Z,30.34
2018-07-05T16:45:33.508Z,29.80
2018-07-05T16:48:20.436Z,28.91
2018-07-05T16:51:07.345Z,30.83
2018-07-05T16:53:54.309Z,30.04
2018-07-05T16:56:41.084Z,30.23
2018-07-05T16:59:28.022Z,29.00
2018-07-05T17:02:14.548Z,28.69
2018-07-05T17:05:01.117Z,28.08
2018-07-05T17:07:48.049Z,27.73
2018-07-05T17:10:34.834Z,27.75
2018-07-05T17:13:21.635Z,28.69
2018-07-05T17:16:08.101Z,28.48
2018-07-05T17:18:54.783Z,27.83
2018-07-05T17:21:41.229Z,27.03
2018-07-05T17:24:27.808Z,26.92
2018-07-05T17:27:14.454Z,26.06
2018-07-05T17:30:00.953Z,26.02
2018-07-05T17:32:47.411Z,25.55
2018-07-05T17:35:33.959Z,25.64
2018-07-05T17:38:20.893Z,25.23
2018-07-05T17:41:07.334Z,25.50
2018-07-05T17:43:54.851Z,25.74
2018-07-05T17:46:41.707Z,25.62
2018-07-05T17:49:28.172Z,25.06
2018-07-05T17:52:14.749Z,24.86
2018-07-05T17:55:01.577Z,24.93
2018-07-05T17:57:48.173Z,24.80
2018-07-05T18:00:35.534Z,24.82
2018-07-05T18:03:22.289Z,24.81
2018-07-05T18:06:08.795Z,24.73
2018-07-05T18:08:55.369Z,24.61
2018-07-05T18:11:42.173Z,24.63
2018-07-05T18:14:28.608Z,24.59
2018-07-05T18:17:15.560Z,24.56
2018-07-05T19:42:18.910Z,23.42
2018-07-05T19:45:06.032Z,23.49
2018-07-05T19:47:52.486Z,23.81
2018-07-05T19:50:39.100Z,23.80
2018-07-05T19:53:25.677Z,23.75
2018-07-05T19:56:12.232Z,23.63
2018-07-05T19:58:58.778Z,23.65
2018-07-05T20:01:45.313Z,23.63
2018-07-05T20:04:31.732Z,23.58
2018-07-05T20:07:18.385Z,23.51
2018-07-05T20:10:05.044Z,23.34
2018-07-05T20:12:51.506Z,23.58
2018-07-05T20:15:38.345Z,23.92
2018-07-05T20:18:25.141Z,23.74
2018-07-05T20:21:12.025Z,23.64
2018-07-05T20:23:58.761Z,23.58
2018-07-05T20:26:46.159Z,23.47
2018-07-05T20:29:33.013Z,23.60
2018-07-05T20:32:19.989Z,23.58
2018-07-05T20:35:06.461Z,23.44
2018-07-05T20:37:53.131Z,23.18
2018-07-05T20:40:39.662Z,23.06
2018-07-05T20:43:26.924Z,23.06
2018-07-05T20:46:13.425Z,23.00
2018-07-05T20:49:00.143Z,23.03
2018-07-05T20:51:46.755Z,22.87
2018-07-05T20:54:33.355Z,23.18
2018-07-05T20:57:19.943Z,23.06
2018-07-05T21:00:06.544Z,22.99
2018-07-05T21:02:53.425Z,22.74
2018-07-05T21:05:40.453Z,22.73
2018-07-05T21:08:27.276Z,22.74
2018-07-05T21:11:14.545Z,22.70
2018-07-05T21:14:01.900Z,22.56
2018-07-05T21:16:49.084Z,22.70
2018-07-05T21:19:35.848Z,22.61
2018-07-05T21:22:22.626Z,22.59
2018-07-05T21:25:09.236Z,22.65
2018-07-05T21:27:55.949Z,22.53
2018-07-05T21:30:42.393Z,22.43
2018-07-05T21:33:29.033Z,22.34
2018-07-05T21:36:15.487Z,22.33
2018-07-05T21:39:02.436Z,22.36
2018-07-05T21:41:49.210Z,22.33
2018-07-05T21:44:36.091Z,22.21
2018-07-05T21:47:23.033Z,22.17
2018-07-05T21:50:09.845Z,22.13
2018-07-05T21:52:56.874Z,22.07
2018-07-05T21:55:43.691Z,22.04
2018-07-05T21:58:30.240Z,22.07
2018-07-05T22:01:16.732Z,22.04
2018-07-05T22:04:03.705Z,21.92
2018-07-05T22:06:50.704Z,21.87
2018-07-05T22:09:37.609Z,21.83
2018-07-05T22:12:24.541Z,21.82
2018-07-05T22:15:11.586Z,21.86
2018-07-05T22:18:03.187Z,21.86
2018-07-05T22:20:55.051Z,21.90
2018-07-05T22:23:46.797Z,21.84
2018-07-05T22:26:37.447Z,21.77
2018-07-05T22:29:29.643Z,21.73
2018-07-05T22:32:16.524Z,21.68
2018-07-05T22:35:03.296Z,21.79
2018-07-05T22:37:50.301Z,21.70
2018-07-05T22:40:37.247Z,21.52
2018-07-05T22:43:25.244Z,21.44
2018-07-05T22:46:12.171Z,21.38
2018-07-05T22:48:58.614Z,21.34
2018-07-05T22:51:45.253Z,21.30
2018-07-05T22:54:31.832Z,21.26
2018-07-05T22:57:18.442Z,21.22
2018-07-05T23:00:05.364Z,21.11
2018-07-05T23:02:52.029Z,21.09
2018-07-05T23:05:38.461Z,21.08
2018-07-05T23:08:25.344Z,21.16
2018-07-05T23:11:12.064Z,21.06
2018-07-05T23:13:58.975Z,20.94
2018-07-05T23:16:45.650Z,20.88
2018-07-05T23:19:32.642Z,20.92
2018-07-05T23:22:19.518Z,20.88
2018-07-05T23:25:06.941Z,20.81
2018-07-05T23:27:53.677Z,20.75
2018-07-05T23:30:40.639Z,20.74
2018-07-05T23:33:27.083Z,20.71
2018-07-05T23:36:13.555Z,20.76
2018-07-05T23:39:00.219Z,20.66
2018-07-05T23:41:46.667Z,20.66
2018-07-05T23:44:33.127Z,20.61
2018-07-05T23:47:20.443Z,20.51
2018-07-05T23:50:07.249Z,20.46
2018-07-05T23:52:53.713Z,20.49
2018-07-05T23:55:41.197Z,20.47
2018-07-05T23:58:27.988Z,20.46
